createdAt,value
2019-06-20T00:00:35.818Z,56.70
2019-06-20T00:03:03.098Z,57.10
2019-06-20T00:05:29.886Z,56.80
2019-06-20T00:07:57.163Z,57.40
2019-06-20T00:10:24.075Z,57.00
2019-06-20T00:13:00.372Z,57.30
2019-06-20T00:15:21.784Z,57.80
2019-06-20T00:17:48.572Z,57.90
2019-06-20T00:20:16.140Z,57.30
2019-06-20T00:22:43.508Z,57.40
2019-06-20T00:25:10.727Z,57.50
2019-06-20T00:27:37.678Z,59.50
2019-06-20T00:30:06.095Z,61.00
2019-06-20T00:32:32.912Z,63.40
2019-06-20T00:34:59.740Z,63.20
2019-06-20T00:37:26.836Z,62.60
2019-06-20T00:39:53.629Z,64.00
2019-06-20T00:42:20.736Z,64.50
2019-06-20T00:44:49.491Z,65.10
2019-06-20T00:47:16.377Z,64.40
2019-06-20T00:49:43.193Z,65.00
2019-06-20T00:52:10.219Z,64.60
2019-06-20T00:54:37.648Z,64.80
2019-06-20T00:57:04.452Z,64.40
2019-06-20T00:59:31.379Z,65.50
2019-06-20T01:01:58.316Z,66.10
2019-06-20T01:04:25.177Z,65.40
2019-06-20T01:06:52.303Z,65.80
2019-06-20T01:09:19.103Z,65.70
2019-06-20T01:11:45.902Z,65.30
2019-06-20T01:14:12.756Z,64.70
2019-06-20T01:16:39.859Z,64.60
2019-06-20T01:19:06.683Z,64.20
2019-06-20T01:21:33.732Z,63.90
2019-06-20T01:24:00.548Z,63.90
2019-06-20T01:26:27.402Z,64.50
2019-06-20T01:28:54.281Z,63.70
2019-06-20T01:31:21.168Z,62.80
2019-06-20T01:33:50.698Z,62.90
2019-06-20T01:36:17.656Z,62.30
2019-06-20T01:38:44.538Z,61.60
2019-06-20T01:41:11.330Z,61.10
2019-06-20T01:43:50.229Z,60.70
2019-06-20T01:46:07.000Z,61.00
2019-06-20T01:48:33.818Z,61.30
2019-06-20T01:51:01.073Z,60.50
2019-06-20T01:53:27.928Z,60.40
2019-06-20T01:55:54.745Z,60.60
2019-06-20T01:58:22.492Z,60.30
2019-06-20T02:00:52.137Z,60.10
2019-06-20T02:03:19.839Z,60.30
2019-06-20T02:05:46.815Z,60.30
2019-06-20T02:08:14.762Z,60.80
2019-06-20T02:10:41.575Z,60.90
2019-06-20T02:13:08.531Z,60.60
2019-06-20T02:15:35.332Z,60.80
2019-06-20T02:18:03.842Z,60.50
2019-06-20T02:20:51.476Z,61.00
2019-06-20T02:23:18.409Z,60.70
2019-06-20T02:25:45.674Z,60.70
2019-06-20T02:28:13.374Z,60.60
2019-06-20T02:30:40.178Z,60.60
2019-06-20T02:33:06.987Z,60.30
2019-06-20T02:35:34.048Z,60.40
2019-06-20T02:38:00.886Z,60.10
2019-06-20T02:40:27.766Z,61.30
2019-06-20T02:42:54.751Z,61.80
2019-06-20T02:45:21.850Z,62.50
2019-06-20T02:47:51.621Z,62.80
2019-06-20T02:50:18.704Z,63.00
2019-06-20T02:52:46.323Z,63.50
2019-06-20T02:55:14.016Z,63.40
2019-06-20T02:57:41.300Z,63.60
2019-06-20T03:00:09.663Z,64.10
2019-06-20T03:02:36.454Z,64.30
2019-06-20T03:05:09.355Z,64.40
2019-06-20T03:07:36.190Z,64.00
2019-06-20T03:10:05.821Z,64.20
2019-06-20T03:12:33.011Z,64.20
2019-06-20T03:14:59.813Z,63.50
2019-06-20T03:17:26.606Z,62.90
2019-06-20T03:19:53.487Z,63.00
2019-06-20T03:22:20.345Z,63.00
2019-06-20T03:24:50.720Z,63.10
2019-06-20T03:27:18.035Z,62.60
2019-06-20T03:29:45.080Z,63.40
2019-06-20T03:32:11.885Z,63.20
2019-06-20T03:34:38.761Z,63.50
2019-06-20T03:37:05.560Z,63.70
2019-06-20T03:39:32.364Z,63.50
2019-06-20T03:41:59.565Z,63.60
2019-06-20T03:44:26.387Z,63.80
2019-06-20T03:46:53.236Z,64.10
2019-06-20T03:49:20.079Z,64.70
2019-06-20T03:51:51.762Z,64.80
2019-06-20T03:54:19.234Z,65.40
2019-06-20T03:56:46.247Z,65.60
2019-06-20T03:59:13.245Z,65.70
2019-06-20T04:01:40.197Z,66.00
2019-06-20T04:04:07.123Z,66.30
2019-06-20T04:06:34.301Z,66.00
2019-06-20T04:09:01.136Z,66.30
2019-06-20T04:11:28.210Z,66.10
2019-06-20T04:13:55.222Z,66.60
2019-06-20T04:16:22.040Z,66.80
2019-06-20T04:18:50.430Z,66.50
2019-06-20T04:21:17.243Z,66.70
2019-06-20T04:23:44.403Z,67.40
2019-06-20T04:26:11.608Z,68.70
2019-06-20T04:28:38.412Z,69.30
2019-06-20T04:31:05.232Z,70.00
2019-06-20T04:33:32.047Z,70.70
2019-06-20T04:35:59.000Z,71.20
2019-06-20T04:38:25.990Z,71.40
2019-06-20T04:40:53.053Z,72.10
2019-06-20T04:43:19.918Z,72.10
2019-06-20T04:45:54.781Z,72.10
2019-06-20T04:48:21.558Z,72.30
2019-06-20T04:50:50.013Z,72.80
2019-06-20T04:53:17.398Z,73.10
2019-06-20T04:55:44.686Z,72.80
2019-06-20T04:58:11.612Z,71.30
2019-06-20T05:00:38.448Z,71.00
2019-06-20T05:03:05.293Z,70.60
2019-06-20T05:05:32.094Z,70.50
2019-06-20T05:07:59.176Z,70.70
2019-06-20T05:10:26.091Z,76.10
2019-06-20T05:12:55.867Z,72.90
2019-06-20T05:15:21.830Z,74.80
2019-06-20T05:17:49.768Z,74.50
2019-06-20T05:20:16.819Z,75.40
2019-06-20T05:22:43.939Z,75.00
2019-06-20T05:25:11.919Z,74.00
2019-06-20T05:27:38.736Z,72.70
2019-06-20T05:30:09.586Z,71.90
2019-06-20T05:32:36.386Z,72.60
2019-06-20T05:35:04.340Z,71.50
2019-06-20T05:37:31.379Z,72.20
2019-06-20T05:39:58.234Z,71.70
2019-06-20T05:42:26.107Z,73.50
2019-06-20T05:44:53.292Z,73.70
2019-06-20T05:47:20.551Z,74.40
2019-06-20T05:49:50.456Z,72.30
2019-06-20T05:52:17.551Z,72.00
2019-06-20T05:54:45.328Z,71.20
2019-06-20T05:57:12.523Z,71.40
2019-06-20T05:59:39.487Z,71.30
2019-06-20T06:02:06.699Z,70.90
2019-06-20T06:04:33.719Z,70.90
2019-06-20T06:07:00.589Z,71.20
2019-06-20T06:09:27.381Z,70.80
2019-06-20T06:11:54.194Z,71.30
2019-06-20T06:14:21.307Z,71.30
2019-06-20T06:16:49.582Z,72.80
2019-06-20T06:19:16.496Z,71.10
2019-06-20T06:21:43.352Z,71.10
2019-06-20T06:24:10.302Z,72.40
2019-06-20T06:26:37.238Z,73.40
2019-06-20T06:29:04.169Z,74.20
2019-06-20T06:31:30.988Z,70.70
2019-06-20T06:33:57.782Z,70.30
2019-06-20T06:36:25.064Z,73.10
2019-06-20T06:38:51.910Z,73.60
2019-06-20T06:41:18.721Z,71.20
2019-06-20T06:43:48.715Z,69.00
2019-06-20T06:46:15.778Z,69.70
2019-06-20T06:48:42.617Z,69.50
2019-06-20T06:51:09.616Z,69.00
2019-06-20T06:53:36.432Z,67.40
2019-06-20T06:56:03.948Z,66.50
2019-06-20T06:58:30.833Z,65.70
2019-06-20T07:00:57.644Z,65.10
2019-06-20T07:03:24.478Z,66.00
2019-06-20T07:05:51.628Z,65.80
2019-06-20T07:08:18.442Z,63.90
2019-06-20T07:10:48.179Z,64.10
2019-06-20T07:13:15.397Z,63.90
2019-06-20T07:15:42.898Z,63.40
2019-06-20T07:18:09.745Z,63.00
2019-06-20T07:20:36.917Z,62.40
2019-06-20T07:23:03.689Z,62.50
2019-06-20T07:25:30.535Z,63.10
2019-06-20T07:27:57.645Z,62.10
2019-06-20T07:30:25.149Z,63.40
2019-06-20T07:32:51.940Z,62.00
2019-06-20T07:35:18.799Z,61.80
2019-06-20T07:37:48.974Z,62.50
2019-06-20T07:40:16.470Z,63.70
2019-06-20T07:42:43.446Z,62.40
2019-06-20T07:45:12.754Z,62.20
2019-06-20T07:47:39.664Z,60.90
2019-06-20T07:50:12.323Z,61.50
2019-06-20T07:52:39.145Z,61.70
2019-06-20T07:55:07.250Z,62.50
2019-06-20T07:57:34.171Z,60.80
2019-06-20T08:00:01.314Z,60.70
2019-06-20T08:02:28.121Z,60.00
2019-06-20T08:04:54.973Z,60.60
2019-06-20T08:07:22.086Z,59.60
2019-06-20T08:09:48.901Z,58.40
2019-06-20T08:12:15.765Z,58.40
2019-06-20T08:14:42.625Z,59.20
2019-06-20T08:17:09.439Z,59.30
2019-06-20T08:19:36.297Z,58.90
2019-06-20T08:22:03.566Z,59.20
2019-06-20T08:24:30.388Z,58.50
2019-06-20T08:26:58.660Z,58.50
2019-06-20T08:29:26.273Z,57.80
2019-06-20T08:31:53.082Z,59.10
2019-06-20T08:34:20.114Z,58.20
2019-06-20T08:36:48.299Z,58.30
2019-06-20T08:39:15.124Z,57.30
2019-06-20T08:41:42.275Z,57.00
2019-06-20T08:44:09.128Z,57.10
2019-06-20T08:46:35.985Z,55.10
2019-06-20T08:49:03.810Z,56.00
2019-06-20T08:51:30.905Z,56.30
2019-06-20T08:53:59.217Z,56.20
2019-06-20T08:56:26.190Z,56.30
2019-06-20T08:58:53.971Z,56.30
2019-06-20T09:01:21.368Z,55.40
2019-06-20T09:03:48.285Z,55.00
2019-06-20T09:06:15.097Z,55.40
2019-06-20T09:08:42.204Z,55.10
2019-06-20T09:11:09.038Z,55.10
2019-06-20T09:13:35.887Z,53.70
2019-06-20T09:16:03.322Z,54.10
2019-06-20T09:18:30.410Z,54.00
2019-06-20T09:20:58.092Z,54.10
2019-06-20T09:23:25.052Z,53.90
2019-06-20T09:25:52.353Z,54.10
2019-06-20T09:28:19.228Z,52.40
2019-06-20T09:30:47.870Z,52.60
2019-06-20T09:33:14.879Z,52.90
2019-06-20T09:35:41.708Z,52.50
2019-06-20T09:38:08.521Z,52.30
2019-06-20T09:40:35.978Z,52.20
2019-06-20T09:43:03.829Z,51.60
2019-06-20T09:45:31.422Z,52.20
2019-06-20T09:47:58.800Z,52.80
2019-06-20T09:50:26.374Z,51.60
2019-06-20T09:52:54.756Z,52.40
2019-06-20T09:55:22.161Z,52.10
2019-06-20T09:57:50.312Z,51.40
2019-06-20T10:00:22.790Z,52.00
2019-06-20T10:02:50.676Z,51.10
2019-06-20T10:05:20.818Z,51.20
2019-06-20T10:07:48.668Z,51.10
2019-06-20T10:10:17.784Z,51.30
2019-06-20T10:12:47.947Z,51.10
2019-06-20T10:15:30.217Z,51.80
2019-06-20T10:17:57.454Z,51.40
2019-06-20T10:20:25.671Z,50.90
2019-06-20T10:22:53.148Z,50.20
2019-06-20T10:25:20.372Z,50.60
2019-06-20T10:27:48.292Z,50.40
2019-06-20T10:30:19.562Z,50.00
2019-06-20T10:32:48.604Z,49.70
2019-06-20T10:35:16.213Z,49.60
2019-06-20T10:37:47.197Z,48.80
2019-06-20T10:40:17.393Z,48.90
2019-06-20T10:42:48.122Z,48.30
2019-06-20T10:45:18.191Z,48.90
2019-06-20T10:47:48.875Z,49.60
2019-06-20T10:50:16.811Z,48.50
2019-06-20T10:52:47.893Z,48.60
2019-06-20T10:55:15.750Z,47.90
2019-06-20T10:57:46.771Z,46.50
2019-06-20T11:00:29.756Z,46.90
2019-06-20T11:02:47.149Z,46.60
2019-06-20T11:05:14.904Z,45.20
2019-06-20T11:07:42.507Z,46.50
2019-06-20T11:10:15.208Z,45.30
2019-06-20T11:12:49.193Z,44.40
2019-06-20T11:15:13.427Z,45.90
2019-06-20T11:17:40.404Z,46.10
2019-06-20T11:20:11.378Z,46.00
2019-06-20T11:22:39.875Z,46.50
2019-06-20T11:25:10.195Z,45.90
2019-06-20T11:27:38.505Z,46.20
2019-06-20T11:30:11.063Z,44.80
2019-06-20T11:32:39.364Z,44.50
2019-06-20T11:35:06.945Z,43.70
2019-06-20T11:37:35.045Z,44.30
2019-06-20T11:40:06.695Z,45.10
2019-06-20T11:42:34.693Z,45.20
2019-06-20T11:45:06.415Z,45.10
2019-06-20T11:47:34.991Z,42.80
2019-06-20T11:50:06.435Z,42.10
2019-06-20T11:52:38.099Z,42.60
2019-06-20T11:55:05.719Z,43.50
2019-06-20T11:57:32.722Z,41.00
2019-06-20T12:00:05.182Z,42.50
2019-06-20T12:02:31.995Z,44.80
2019-06-20T12:04:58.853Z,45.10
2019-06-20T12:07:25.683Z,44.20
2019-06-20T12:09:52.748Z,45.50
2019-06-20T12:12:19.684Z,45.20
2019-06-20T12:14:46.863Z,43.70
2019-06-20T12:17:13.728Z,44.60
2019-06-20T12:19:40.938Z,45.70
2019-06-20T12:22:07.854Z,44.40
2019-06-20T12:24:35.055Z,44.60
2019-06-20T12:27:02.124Z,46.00
2019-06-20T12:29:29.007Z,45.40
2019-06-20T12:31:56.325Z,44.00
2019-06-20T12:34:23.885Z,42.90
2019-06-20T12:36:50.830Z,42.50
2019-06-20T12:39:17.634Z,42.20
2019-06-20T12:41:47.537Z,41.10
2019-06-20T12:44:14.843Z,42.10
2019-06-20T12:46:44.849Z,44.00
2019-06-20T12:49:11.964Z,42.10
2019-06-20T12:51:40.397Z,41.70
2019-06-20T12:54:07.743Z,42.00
2019-06-20T12:56:34.626Z,44.00
2019-06-20T12:59:01.715Z,44.40
2019-06-20T13:01:35.820Z,43.60
2019-06-20T13:03:57.220Z,43.20
2019-06-20T13:06:24.090Z,43.80
2019-06-20T13:08:51.291Z,43.20
2019-06-20T13:11:18.099Z,41.90
2019-06-20T13:13:46.584Z,41.40
2019-06-20T13:16:13.649Z,40.30
2019-06-20T13:18:41.382Z,40.90
2019-06-20T13:21:09.643Z,40.90
2019-06-20T13:23:37.046Z,40.50
2019-06-20T13:26:03.855Z,41.30
2019-06-20T13:28:30.901Z,40.90
2019-06-20T13:30:57.793Z,41.30
2019-06-20T13:33:24.751Z,41.70
2019-06-20T13:35:51.581Z,40.20
2019-06-20T13:38:18.486Z,39.70
2019-06-20T13:40:45.474Z,39.40
2019-06-20T13:43:12.736Z,39.70
2019-06-20T13:45:41.152Z,37.20
2019-06-20T13:48:08.492Z,37.00
2019-06-20T13:50:35.435Z,37.30
2019-06-20T13:53:02.239Z,36.30
2019-06-20T13:55:29.274Z,36.40
2019-06-20T13:57:56.323Z,35.80
2019-06-20T14:00:24.591Z,34.70
2019-06-20T14:02:51.870Z,34.80
2019-06-20T14:05:19.674Z,34.80
2019-06-20T14:07:48.458Z,33.70
2019-06-20T14:10:16.106Z,33.40
2019-06-20T14:12:46.729Z,33.50
2019-06-20T14:15:15.908Z,32.40
2019-06-20T14:17:47.191Z,32.00
2019-06-20T14:20:14.199Z,32.10
2019-06-20T14:22:45.011Z,33.60
2019-06-20T14:25:12.795Z,34.90
2019-06-20T14:27:39.632Z,35.20
2019-06-20T14:30:08.185Z,34.40
2019-06-20T14:32:34.989Z,34.10
2019-06-20T14:35:03.349Z,33.40
2019-06-20T14:37:30.189Z,34.80
2019-06-20T14:39:57.143Z,35.50
2019-06-20T14:42:24.121Z,36.00
2019-06-20T14:44:52.440Z,32.40
2019-06-20T14:47:19.667Z,31.60
2019-06-20T14:49:46.608Z,31.60
2019-06-20T14:52:13.730Z,31.40
2019-06-20T14:54:45.874Z,31.30
2019-06-20T14:57:13.339Z,31.30
2019-06-20T14:59:45.051Z,31.70
2019-06-20T15:02:13.008Z,31.70
2019-06-20T15:04:44.401Z,31.80
2019-06-20T15:07:11.707Z,30.90
2019-06-20T15:09:39.244Z,28.80
2019-06-20T15:12:06.716Z,28.40
2019-06-20T15:14:33.821Z,28.20
2019-06-20T15:17:00.643Z,26.20
2019-06-20T15:19:27.478Z,25.60
2019-06-20T15:21:54.587Z,25.70
2019-06-20T15:24:21.740Z,27.50
2019-06-20T15:26:49.411Z,26.60
2019-06-20T15:29:17.293Z,27.00
2019-06-20T15:31:45.883Z,26.60
2019-06-20T15:34:13.278Z,25.50
2019-06-20T15:36:43.373Z,24.60
2019-06-20T15:39:10.211Z,24.80
2019-06-20T15:41:37.313Z,24.80
2019-06-20T15:44:04.125Z,25.80
2019-06-20T15:46:30.974Z,26.20
2019-06-20T15:48:59.887Z,25.00
2019-06-20T15:51:26.782Z,25.70
2019-06-20T15:53:53.593Z,26.00
2019-06-20T15:56:20.391Z,26.00
2019-06-20T15:58:47.220Z,25.90
2019-06-20T16:01:14.003Z,26.50
2019-06-20T16:03:44.058Z,26.10
2019-06-20T16:06:10.861Z,25.00
2019-06-20T16:08:37.701Z,26.70
2019-06-20T16:11:04.497Z,26.70
2019-06-20T16:13:31.563Z,27.40
2019-06-20T16:15:58.453Z,28.40
2019-06-20T16:18:25.270Z,29.50
2019-06-20T16:20:52.378Z,30.50
2019-06-20T16:23:19.169Z,31.30
2019-06-20T16:25:46.023Z,31.20
2019-06-20T16:28:13.173Z,31.30
2019-06-20T16:30:43.042Z,31.10
2019-06-20T16:33:24.085Z,30.70
2019-06-20T16:35:38.764Z,30.90
2019-06-20T16:38:05.717Z,30.90
2019-06-20T16:40:45.654Z,32.10
2019-06-20T16:43:12.483Z,32.70
2019-06-20T16:45:42.377Z,32.50
2019-06-20T16:48:09.727Z,32.90
2019-06-20T16:50:37.125Z,32.90
2019-06-20T16:53:04.348Z,33.60
2019-06-20T16:55:31.395Z,33.80
2019-06-20T16:57:58.188Z,33.70
2019-06-20T17:00:24.966Z,34.40
2019-06-20T17:02:51.954Z,33.90
2019-06-20T17:05:19.426Z,33.90
2019-06-20T17:07:46.360Z,33.50
2019-06-20T17:10:14.091Z,33.10
2019-06-20T17:12:43.514Z,32.70
2019-06-20T17:15:10.693Z,33.60
2019-06-20T17:17:37.987Z,34.70
2019-06-20T17:20:07.313Z,34.20
2019-06-20T17:22:34.348Z,34.10
2019-06-20T17:25:01.200Z,33.90
2019-06-20T17:27:28.564Z,33.80
2019-06-20T17:29:55.364Z,34.40
2019-06-20T17:32:22.531Z,34.50
2019-06-20T17:34:49.342Z,34.70
2019-06-20T17:37:16.137Z,34.50
2019-06-20T17:39:43.720Z,34.20
2019-06-20T17:42:10.513Z,34.50
2019-06-20T17:44:37.655Z,35.00
2019-06-20T17:47:04.568Z,34.80
2019-06-20T17:49:31.388Z,36.10
2019-06-20T17:51:58.544Z,36.60
2019-06-20T17:54:25.418Z,36.30
2019-06-20T17:56:52.299Z,35.90
2019-06-20T17:59:22.569Z,36.20
2019-06-20T18:01:47.872Z,36.60
2019-06-20T18:04:14.685Z,36.50
2019-06-20T18:06:42.642Z,36.70
2019-06-20T18:09:09.472Z,36.70
2019-06-20T18:11:36.283Z,36.80
2019-06-20T18:14:03.859Z,36.60
2019-06-20T18:16:30.780Z,37.00
2019-06-20T18:18:57.966Z,37.50
2019-06-20T18:21:24.777Z,37.70
2019-06-20T18:23:51.883Z,37.90
2019-06-20T18:26:19.011Z,38.30
2019-06-20T18:28:45.984Z,38.80
2019-06-20T18:31:13.320Z,39.10
2019-06-20T18:33:42.486Z,38.60
2019-06-20T18:36:09.288Z,38.60
2019-06-20T18:38:36.167Z,38.60
2019-06-20T18:41:03.210Z,39.70
2019-06-20T18:43:29.900Z,39.70
2019-06-20T18:45:57.110Z,39.70
2019-06-20T18:48:24.104Z,38.80
2019-06-20T18:50:50.913Z,38.30
2019-06-20T18:53:17.848Z,38.70
2019-06-20T18:55:44.660Z,38.60
2019-06-20T18:58:11.477Z,38.50
2019-06-20T19:00:41.318Z,38.40
2019-06-20T19:03:08.197Z,38.60
2019-06-20T19:05:35.009Z,38.70
2019-06-20T19:08:01.988Z,38.80
2019-06-20T19:10:29.178Z,38.90
2019-06-20T19:12:55.982Z,38.60
2019-06-20T19:15:24.327Z,38.60
2019-06-20T19:17:51.416Z,38.80
2019-06-20T19:20:19.519Z,38.70
2019-06-20T19:22:46.618Z,38.80
2019-06-20T19:25:15.978Z,38.80
2019-06-20T19:27:46.568Z,39.10
2019-06-20T19:30:15.570Z,39.10
2019-06-20T19:32:42.377Z,39.10
2019-06-20T19:35:12.279Z,39.50
2019-06-20T19:37:42.381Z,39.60
2019-06-20T19:40:11.973Z,39.50
2019-06-20T19:42:41.956Z,39.30
2019-06-20T19:45:10.947Z,39.80
2019-06-20T19:47:40.971Z,40.40
2019-06-20T19:50:10.226Z,40.50
2019-06-20T19:52:40.915Z,40.90
2019-06-20T19:55:09.101Z,41.80
2019-06-20T19:57:36.175Z,42.50
2019-06-20T20:00:07.599Z,42.10
2019-06-20T20:02:34.413Z,42.50
2019-06-20T20:05:14.858Z,43.00
2019-06-20T20:07:30.268Z,43.00
2019-06-20T20:09:57.065Z,43.60
2019-06-20T20:12:24.251Z,44.70
2019-06-20T20:14:51.391Z,45.10
2019-06-20T20:17:18.225Z,45.50
2019-06-20T20:19:45.226Z,46.20
2019-06-20T20:22:12.237Z,46.40
2019-06-20T20:24:41.681Z,46.30
2019-06-20T20:27:08.611Z,46.20
2019-06-20T20:29:36.128Z,46.70
2019-06-20T20:32:03.310Z,46.60
2019-06-20T20:34:30.208Z,47.00
2019-06-20T20:36:57.313Z,47.20
2019-06-20T20:39:24.159Z,46.90
2019-06-20T20:41:50.949Z,46.70
2019-06-20T20:44:17.892Z,47.20
2019-06-20T20:46:44.742Z,47.20
2019-06-20T20:49:11.552Z,47.60
2019-06-20T20:51:41.070Z,47.20
2019-06-20T20:54:07.892Z,47.60
2019-06-20T20:56:35.098Z,47.50
2019-06-20T20:59:02.170Z,47.40
2019-06-20T21:01:35.727Z,47.70
2019-06-20T21:04:03.305Z,47.50
2019-06-20T21:06:30.587Z,47.20
2019-06-20T21:08:57.395Z,47.20
2019-06-20T21:11:24.292Z,47.20
2019-06-20T21:13:51.074Z,47.90
2019-06-20T21:16:17.899Z,48.00
2019-06-20T21:18:45.075Z,47.90
2019-06-20T21:21:11.995Z,48.40
2019-06-20T21:23:41.301Z,49.00
2019-06-20T21:26:08.144Z,48.80
2019-06-20T21:28:35.035Z,48.80
2019-06-20T21:31:01.940Z,48.50
2019-06-20T21:33:28.943Z,48.30
2019-06-20T21:36:07.908Z,48.00
2019-06-20T21:38:24.793Z,48.30
2019-06-20T21:40:51.717Z,48.30
2019-06-20T21:43:18.511Z,47.80
2019-06-20T21:45:45.652Z,47.40
2019-06-20T21:48:12.510Z,47.10
2019-06-20T21:50:40.871Z,46.70
2019-06-20T21:53:07.681Z,46.50
2019-06-20T21:55:34.909Z,46.40
2019-06-20T21:58:01.757Z,46.20
2019-06-20T22:00:46.812Z,45.90
2019-06-20T22:03:13.907Z,45.90
2019-06-20T22:05:41.073Z,45.80
2019-06-20T22:08:08.999Z,45.50
2019-06-20T22:10:35.954Z,45.30
2019-06-20T22:13:03.178Z,45.30
2019-06-20T22:15:30.056Z,45.50
2019-06-20T22:17:57.283Z,45.50
2019-06-20T22:20:24.953Z,45.50
2019-06-20T22:22:51.962Z,45.50
2019-06-20T22:25:19.474Z,45.40
2019-06-20T22:27:46.291Z,45.30
2019-06-20T22:30:16.059Z,45.30
2019-06-20T22:32:42.876Z,45.40
2019-06-20T22:35:10.396Z,45.30
2019-06-20T22:37:40.121Z,45.20
2019-06-20T22:40:08.807Z,45.40
2019-06-20T22:42:35.914Z,45.30
2019-06-20T22:45:08.132Z,45.40
2019-06-20T22:47:34.950Z,45.40
2019-06-20T22:50:06.416Z,45.30
2019-06-20T22:52:33.251Z,45.30
2019-06-20T22:55:00.040Z,45.50
2019-06-20T22:57:27.197Z,45.80
2019-06-20T22:59:54.027Z,45.90
2019-06-20T23:02:20.912Z,46.00
2019-06-20T23:04:47.721Z,46.00
2019-06-20T23:07:14.529Z,46.20
2019-06-20T23:09:41.403Z,46.20
2019-06-20T23:12:08.196Z,46.70
2019-06-20T23:14:35.594Z,46.70
2019-06-20T23:17:03.324Z,46.80
2019-06-20T23:19:30.560Z,47.00
2019-06-20T23:21:57.369Z,47.30
2019-06-20T23:24:24.694Z,47.20
2019-06-20T23:26:51.835Z,48.20
2019-06-20T23:29:22.173Z,48.30
2019-06-20T23:31:50.619Z,48.80
2019-06-20T23:34:18.032Z,48.50
2019-06-20T23:36:44.853Z,49.30
2019-06-20T23:39:11.873Z,49.50
2019-06-20T23:41:39.646Z,50.50
2019-06-20T23:44:06.544Z,51.10
2019-06-20T23:46:33.408Z,51.20
2019-06-20T23:49:00.499Z,50.90
2019-06-20T23:51:29.253Z,50.80
2019-06-20T23:53:56.116Z,50.60
2019-06-20T23:56:22.916Z,50.90
2019-06-20T23:58:49.833Z,50.60
